Time;durP1;ratioP1;P1;durP2;ratioP2;P2;SDS_P1;SDS_P2;PMS_P1;PMS_P2;Temp;Humidity;BMP_temperature;BMP_pressure;BME280_temperature;BME280_humidity;BME280_pressure;Samples;Min_cycle;Max_cycle;Signal;HPM_P1;HPM_P2
2021/07/24 00:00:35;;;;;;;16.33;7.43;;;;;;;;;;5062437;28;20251;-65
2021/07/24 00:03:00;;;;;;;12.55;7.78;;;;;;;;;;5065688;28;20033;-65
2021/07/24 00:05:25;;;;;;;13.60;7.20;;;;;;;;;;5069520;28;20500;-65
2021/07/24 00:07:50;;;;;;;22.73;8.03;;;;;;;;;;5056904;28;20271;-65
2021/07/24 00:10:16;;;;;;;12.45;7.85;;;;;;;;;;5056310;28;20269;-65
2021/07/24 00:12:41;;;;;;;10.60;6.93;;;;;;;;;;5060820;28;20053;-65
2021/07/24 00:15:06;;;;;;;15.37;7.37;;;;;;;;;;5058860;28;20850;-65
2021/07/24 00:17:31;;;;;;;11.65;7.63;;;;;;;;;;5063906;28;20290;-65
2021/07/24 00:19:56;;;;;;;19.60;8.20;;;;;;;;;;5066764;28;20021;-65
2021/07/24 00:22:22;;;;;;;17.63;8.00;;;;;;;;;;5056056;28;20639;-65
2021/07/24 00:24:47;;;;;;;15.82;8.18;;;;;;;;;;5066676;28;20020;-65
2021/07/24 00:27:12;;;;;;;13.27;7.53;;;;;;;;;;5058798;28;20057;-65
2021/07/24 00:29:37;;;;;;;13.35;7.95;;;;;;;;;;5057851;28;20114;-65
2021/07/24 00:32:03;;;;;;;18.37;8.07;;;;;;;;;;5055146;28;20024;-65
2021/07/24 00:34:28;;;;;;;14.63;8.15;;;;;;;;;;5067936;28;20796;-65
2021/07/24 00:36:55;;;;;;;20.10;8.23;;;;;;;;;;5057231;28;20032;-65
2021/07/24 00:39:21;;;;;;;12.30;7.65;;;;;;;;;;5056038;28;20028;-65
2021/07/24 00:41:48;;;;;;;13.10;7.50;;;;;;;;;;5063568;28;20092;-65
2021/07/24 00:44:15;;;;;;;17.77;8.18;;;;;;;;;;5061924;28;20374;-65
2021/07/24 00:46:40;;;;;;;19.67;7.93;;;;;;;;;;5055844;28;20077;-65
2021/07/24 00:49:06;;;;;;;15.60;8.15;;;;;;;;;;5057842;28;20020;-65
2021/07/24 00:51:33;;;;;;;13.43;7.90;;;;;;;;;;5064947;28;20024;-65
2021/07/24 00:53:58;;;;;;;14.65;8.25;;;;;;;;;;5066418;28;20013;-65
2021/07/24 00:56:27;;;;;;;17.67;8.35;;;;;;;;;;5055024;28;20029;-65
2021/07/24 00:58:52;;;;;;;13.80;8.50;;;;;;;;;;5056504;28;20487;-65
2021/07/24 01:01:17;;;;;;;17.83;8.05;;;;;;;;;;5064078;28;20100;-65
2021/07/24 01:03:43;;;;;;;16.65;8.75;;;;;;;;;;5064122;28;20017;-65
2021/07/24 01:06:08;;;;;;;13.77;8.37;;;;;;;;;;5066326;28;20040;-65
2021/07/24 01:08:35;;;;;;;12.38;8.35;;;;;;;;;;5060185;28;20060;-65
2021/07/24 01:11:01;;;;;;;15.32;8.35;;;;;;;;;;5067839;28;20028;-65
2021/07/24 01:13:26;;;;;;;11.98;8.23;;;;;;;;;;5059412;28;20024;-65
2021/07/24 01:15:52;;;;;;;16.23;8.73;;;;;;;;;;5059400;28;20020;-65
2021/07/24 01:18:18;;;;;;;16.63;9.15;;;;;;;;;;5058116;28;20538;-66
2021/07/24 01:20:43;;;;;;;15.02;8.90;;;;;;;;;;5062229;28;20044;-65
2021/07/24 01:23:09;;;;;;;13.10;8.60;;;;;;;;;;5056917;28;20045;-65
2021/07/24 01:25:40;;;;;;;15.88;9.27;;;;;;;;;;5056595;28;20369;-64
2021/07/24 01:28:06;;;;;;;15.68;9.05;;;;;;;;;;5052074;28;20417;-65
2021/07/24 01:30:31;;;;;;;17.20;9.43;;;;;;;;;;5055676;28;20083;-64
2021/07/24 01:32:56;;;;;;;18.00;9.33;;;;;;;;;;5062213;28;20275;-65
2021/07/24 01:35:21;;;;;;;15.93;9.23;;;;;;;;;;5053492;28;20635;-65
2021/07/24 01:37:46;;;;;;;16.37;9.17;;;;;;;;;;5056225;28;20028;-65
2021/07/24 01:40:12;;;;;;;16.03;9.40;;;;;;;;;;5059766;28;20271;-65
2021/07/24 01:42:37;;;;;;;14.15;9.48;;;;;;;;;;5054029;28;20069;-65
2021/07/24 01:45:02;;;;;;;16.57;9.37;;;;;;;;;;5059238;28;20027;-65
2021/07/24 01:47:27;;;;;;;25.15;10.60;;;;;;;;;;5054979;28;20775;-65
2021/07/24 01:52:49;;;;;;;14.63;9.50;;;;;;;;;;5063663;28;20305;-65
2021/07/24 01:55:22;;;;;;;15.52;9.77;;;;;;;;;;5052866;28;20511;-65
2021/07/24 01:57:48;;;;;;;16.27;9.38;;;;;;;;;;5055907;28;20079;-65
2021/07/24 02:00:14;;;;;;;24.50;11.32;;;;;;;;;;5059638;28;20029;-65
2021/07/24 02:02:39;;;;;;;20.30;9.13;;;;;;;;;;5057854;28;20087;-65
2021/07/24 02:05:09;;;;;;;16.80;9.52;;;;;;;;;;5059991;28;20019;-65
2021/07/24 02:07:36;;;;;;;16.75;10.02;;;;;;;;;;5063116;28;20020;-64
2021/07/24 02:10:02;;;;;;;18.63;10.02;;;;;;;;;;5057050;28;20500;-65
2021/07/24 02:12:27;;;;;;;14.65;9.27;;;;;;;;;;5061787;28;20024;-65
2021/07/24 02:14:52;;;;;;;15.73;9.47;;;;;;;;;;5053136;28;20036;-65
2021/07/24 02:17:18;;;;;;;15.70;10.27;;;;;;;;;;5055742;28;20358;-65
2021/07/24 02:19:43;;;;;;;16.20;10.13;;;;;;;;;;5058799;28;20012;-65
2021/07/24 02:22:08;;;;;;;15.00;10.00;;;;;;;;;;5061627;28;20035;-65
2021/07/24 02:24:33;;;;;;;15.80;9.87;;;;;;;;;;5061801;28;20024;-65
2021/07/24 02:26:58;;;;;;;17.57;10.57;;;;;;;;;;5065423;28;20710;-65
2021/07/24 02:29:23;;;;;;;15.00;9.97;;;;;;;;;;5059424;28;20259;-65
2021/07/24 02:31:49;;;;;;;21.00;10.60;;;;;;;;;;5065106;28;20624;-65
2021/07/24 02:34:14;;;;;;;21.15;9.90;;;;;;;;;;5070960;28;20321;-65
2021/07/24 02:36:39;;;;;;;16.17;10.07;;;;;;;;;;5061305;28;20057;-65
2021/07/24 02:39:04;;;;;;;14.70;9.10;;;;;;;;;;5066456;28;20459;-66
2021/07/24 02:41:29;;;;;;;16.23;9.97;;;;;;;;;;5065174;28;20107;-65
2021/07/24 02:43:55;;;;;;;20.58;10.52;;;;;;;;;;5067934;28;20266;-65
2021/07/24 02:46:20;;;;;;;16.73;9.03;;;;;;;;;;5064299;28;20029;-65
2021/07/24 02:48:46;;;;;;;19.45;11.15;;;;;;;;;;5062888;28;20284;-65
2021/07/24 02:51:12;;;;;;;15.90;10.45;;;;;;;;;;5054012;28;20457;-64
2021/07/24 02:53:37;;;;;;;16.23;10.70;;;;;;;;;;5063321;28;20473;-65
2021/07/24 02:56:02;;;;;;;19.23;10.50;;;;;;;;;;5064501;28;20107;-65
2021/07/24 02:58:27;;;;;;;20.92;10.77;;;;;;;;;;5066848;28;20274;-65
2021/07/24 03:00:52;;;;;;;17.17;10.80;;;;;;;;;;5071781;28;20082;-65
2021/07/24 03:03:17;;;;;;;17.60;11.07;;;;;;;;;;5061437;28;20295;-65
2021/07/24 03:05:43;;;;;;;19.97;10.87;;;;;;;;;;5061240;28;20017;-65
2021/07/24 03:08:09;;;;;;;18.30;10.32;;;;;;;;;;5064804;28;20367;-65
2021/07/24 03:10:34;;;;;;;15.20;10.17;;;;;;;;;;5070536;28;20461;-65
2021/07/24 03:12:59;;;;;;;16.60;10.33;;;;;;;;;;5060452;28;20044;-65
2021/07/24 03:15:24;;;;;;;19.47;11.27;;;;;;;;;;5063863;28;20337;-65
2021/07/24 03:17:49;;;;;;;19.00;11.30;;;;;;;;;;5061895;28;20117;-65
2021/07/24 03:20:15;;;;;;;16.93;11.23;;;;;;;;;;5062450;28;20029;-64
2021/07/24 03:22:40;;;;;;;20.33;11.95;;;;;;;;;;5056841;28;20290;-65
2021/07/24 03:25:05;;;;;;;15.85;11.43;;;;;;;;;;5062020;28;20535;-65
2021/07/24 03:27:30;;;;;;;20.70;11.63;;;;;;;;;;5058784;28;20472;-65
2021/07/24 03:29:56;;;;;;;17.80;10.67;;;;;;;;;;5056722;28;20020;-65
2021/07/24 03:32:21;;;;;;;23.15;11.70;;;;;;;;;;5060641;28;20331;-65
2021/07/24 03:34:46;;;;;;;19.40;11.93;;;;;;;;;;5060678;28;20025;-65
2021/07/24 03:37:11;;;;;;;17.07;11.00;;;;;;;;;;5060124;28;20107;-65
2021/07/24 03:39:36;;;;;;;20.25;10.90;;;;;;;;;;5065778;28;20267;-66
2021/07/24 03:42:02;;;;;;;16.07;10.77;;;;;;;;;;5060809;28;20492;-64
2021/07/24 03:44:27;;;;;;;16.90;10.90;;;;;;;;;;5064626;28;20270;-64
2021/07/24 03:46:52;;;;;;;23.90;12.13;;;;;;;;;;5056310;28;20106;-65
2021/07/24 03:49:17;;;;;;;23.33;11.67;;;;;;;;;;5067629;28;20024;-65
2021/07/24 03:51:43;;;;;;;21.27;10.83;;;;;;;;;;5057325;28;20290;-65
2021/07/24 03:54:08;;;;;;;20.30;12.38;;;;;;;;;;5062275;28;20341;-65
2021/07/24 03:56:33;;;;;;;23.08;11.85;;;;;;;;;;5057314;28;20111;-65
2021/07/24 03:58:58;;;;;;;18.88;11.85;;;;;;;;;;5070073;28;20017;-65
2021/07/24 04:01:26;;;;;;;20.05;11.85;;;;;;;;;;5063182;28;20017;-65
2021/07/24 04:03:52;;;;;;;17.27;11.55;;;;;;;;;;5062169;28;20036;-65
2021/07/24 04:06:25;;;;;;;20.42;11.65;;;;;;;;;;5056782;28;20385;-65
2021/07/24 04:08:50;;;;;;;22.23;12.25;;;;;;;;;;5065188;28;20021;-65
2021/07/24 04:11:16;;;;;;;20.17;11.48;;;;;;;;;;5055124;28;20028;-64
2021/07/24 04:13:41;;;;;;;19.25;11.18;;;;;;;;;;5053450;28;20016;-65
2021/07/24 04:16:06;;;;;;;21.13;11.33;;;;;;;;;;5055457;28;20028;-65
2021/07/24 04:18:33;;;;;;;24.10;11.38;;;;;;;;;;5060749;28;20293;-65
2021/07/24 04:20:59;;;;;;;20.27;11.93;;;;;;;;;;5066207;28;20672;-65
2021/07/24 04:23:25;;;;;;;18.58;11.20;;;;;;;;;;5067039;28;20021;-65
2021/07/24 04:25:50;;;;;;;16.70;11.20;;;;;;;;;;5060660;28;20020;-65
2021/07/24 04:28:15;;;;;;;20.13;11.23;;;;;;;;;;5054736;28;20025;-65
2021/07/24 04:30:40;;;;;;;19.58;11.60;;;;;;;;;;5052537;28;20369;-66
2021/07/24 04:33:06;;;;;;;28.60;11.80;;;;;;;;;;5058278;28;20021;-65
2021/07/24 04:35:31;;;;;;;19.10;11.70;;;;;;;;;;5056877;28;20372;-65
2021/07/24 04:37:56;;;;;;;23.40;11.97;;;;;;;;;;5055579;28;20128;-65
2021/07/24 04:40:21;;;;;;;18.17;10.57;;;;;;;;;;5055991;28;20734;-65
2021/07/24 04:42:47;;;;;;;16.27;10.75;;;;;;;;;;5061929;28;20283;-65
2021/07/24 04:45:12;;;;;;;20.65;11.35;;;;;;;;;;5056722;28;20017;-65
2021/07/24 04:47:37;;;;;;;19.02;11.13;;;;;;;;;;5064146;28;20435;-65
2021/07/24 04:50:03;;;;;;;18.77;11.95;;;;;;;;;;5069227;28;20024;-65
2021/07/24 04:52:29;;;;;;;26.15;11.23;;;;;;;;;;5060084;28;20044;-65
2021/07/24 04:54:54;;;;;;;25.30;10.57;;;;;;;;;;5055375;28;20489;-65
2021/07/24 04:57:20;;;;;;;20.20;10.75;;;;;;;;;;5066516;28;20046;-65
2021/07/24 04:59:48;;;;;;;18.00;11.93;;;;;;;;;;5063033;28;20031;-65
2021/07/24 05:02:17;;;;;;;20.85;12.52;;;;;;;;;;5060930;28;20107;-65
2021/07/24 05:04:43;;;;;;;21.15;12.25;;;;;;;;;;5063616;28;20104;-65
2021/07/24 05:07:08;;;;;;;27.17;12.80;;;;;;;;;;5064518;28;20055;-65
2021/07/24 05:09:33;;;;;;;19.75;12.35;;;;;;;;;;5065478;28;20028;-65
2021/07/24 05:11:58;;;;;;;19.83;12.13;;;;;;;;;;5063768;28;20021;-65
2021/07/24 05:14:23;;;;;;;18.90;11.47;;;;;;;;;;5056553;28;20017;-64
2021/07/24 05:16:49;;;;;;;18.87;12.00;;;;;;;;;;5056365;28;20033;-65
2021/07/24 05:19:14;;;;;;;20.87;12.13;;;;;;;;;;5053792;28;20275;-65
2021/07/24 05:21:39;;;;;;;18.80;12.33;;;;;;;;;;5056611;28;20624;-65
2021/07/24 05:24:04;;;;;;;20.33;12.90;;;;;;;;;;5054421;28;20021;-65
2021/07/24 05:26:29;;;;;;;20.17;12.00;;;;;;;;;;5059538;28;20627;-65
2021/07/24 05:28:54;;;;;;;25.70;13.10;;;;;;;;;;5059431;28;20257;-65
2021/07/24 05:31:21;;;;;;;23.92;12.05;;;;;;;;;;5050621;28;20029;-65
2021/07/24 05:33:47;;;;;;;18.60;11.65;;;;;;;;;;5050817;28;20036;-65
2021/07/24 05:36:12;;;;;;;17.85;11.15;;;;;;;;;;5051188;28;20025;-65
2021/07/24 05:38:37;;;;;;;19.20;11.70;;;;;;;;;;5050561;28;20033;-65
2021/07/24 05:41:03;;;;;;;20.95;11.85;;;;;;;;;;5055262;28;20282;-65
2021/07/24 05:43:28;;;;;;;21.08;12.02;;;;;;;;;;5062444;28;20023;-65
2021/07/24 05:45:53;;;;;;;18.87;11.63;;;;;;;;;;5061467;28;20048;-65
2021/07/24 05:48:18;;;;;;;24.50;12.90;;;;;;;;;;5053935;28;20326;-65
2021/07/24 05:50:43;;;;;;;21.47;11.93;;;;;;;;;;5063632;28;20382;-65
2021/07/24 05:53:08;;;;;;;21.40;12.43;;;;;;;;;;5062401;28;20251;-65
2021/07/24 05:55:34;;;;;;;23.10;13.00;;;;;;;;;;5051424;28;20070;-65
2021/07/24 05:57:59;;;;;;;21.27;12.93;;;;;;;;;;5052629;28;20299;-65
2021/07/24 06:00:24;;;;;;;19.80;12.70;;;;;;;;;;5050275;28;20032;-66
2021/07/24 06:02:49;;;;;;;26.80;13.20;;;;;;;;;;5064182;28;20031;-65
2021/07/24 06:05:14;;;;;;;21.83;12.83;;;;;;;;;;5060306;28;20787;-65
2021/07/24 06:07:40;;;;;;;20.48;12.38;;;;;;;;;;5050203;28;20029;-65
2021/07/24 06:10:05;;;;;;;20.55;11.63;;;;;;;;;;5049982;28;20017;-65
2021/07/24 06:12:30;;;;;;;20.77;12.57;;;;;;;;;;5065006;28;20025;-66
2021/07/24 06:14:55;;;;;;;19.83;12.87;;;;;;;;;;5064038;28;20036;-65
2021/07/24 06:17:21;;;;;;;25.13;14.43;;;;;;;;;;5055976;28;20290;-65
2021/07/24 06:19:46;;;;;;;24.50;14.40;;;;;;;;;;5062679;28;20619;-65
2021/07/24 06:22:11;;;;;;;19.43;12.93;;;;;;;;;;5061191;28;20025;-65
2021/07/24 06:24:36;;;;;;;23.67;13.77;;;;;;;;;;5053522;28;20279;-66
2021/07/24 06:27:01;;;;;;;23.53;13.67;;;;;;;;;;5048258;28;20486;-65
2021/07/24 06:29:27;;;;;;;26.42;13.60;;;;;;;;;;5063210;28;20016;-66
2021/07/24 06:31:52;;;;;;;21.30;12.90;;;;;;;;;;5047404;28;20105;-65
2021/07/24 06:34:17;;;;;;;20.87;12.33;;;;;;;;;;5058386;28;20279;-66
2021/07/24 06:36:42;;;;;;;21.97;11.53;;;;;;;;;;5066156;28;20282;-65
2021/07/24 06:39:07;;;;;;;19.05;11.30;;;;;;;;;;5049740;28;20492;-66
2021/07/24 06:41:34;;;;;;;20.80;11.80;;;;;;;;;;5061127;28;20540;-65
2021/07/24 06:43:59;;;;;;;21.30;12.07;;;;;;;;;;5066969;28;20025;-65
2021/07/24 06:46:24;;;;;;;19.63;11.93;;;;;;;;;;5067015;28;20017;-65
2021/07/24 06:48:49;;;;;;;17.42;11.57;;;;;;;;;;5047377;28;20036;-66
2021/07/24 06:51:15;;;;;;;22.07;13.20;;;;;;;;;;5049551;28;20033;-65
2021/07/24 06:53:40;;;;;;;18.23;11.75;;;;;;;;;;5066456;28;20719;-65
2021/07/24 06:56:05;;;;;;;17.30;11.35;;;;;;;;;;5062388;28;20107;-65
2021/07/24 06:58:32;;;;;;;17.83;11.40;;;;;;;;;;5053614;28;20146;-65
2021/07/24 07:00:57;;;;;;;17.48;11.18;;;;;;;;;;5062816;28;20328;-66
2021/07/24 07:03:23;;;;;;;17.63;10.37;;;;;;;;;;5068577;28;20029;-65
2021/07/24 07:05:49;;;;;;;15.45;10.10;;;;;;;;;;5062779;28;20259;-66
2021/07/24 07:08:14;;;;;;;18.75;11.45;;;;;;;;;;5055418;28;20106;-65
2021/07/24 07:10:39;;;;;;;17.92;10.20;;;;;;;;;;5057452;28;20489;-65
2021/07/24 07:13:04;;;;;;;25.57;10.63;;;;;;;;;;5071003;28;20025;-65
2021/07/24 07:15:30;;;;;;;18.03;11.67;;;;;;;;;;5060359;28;20478;-65
2021/07/24 07:17:55;;;;;;;25.80;9.63;;;;;;;;;;5061752;28;20039;-66
2021/07/24 07:20:21;;;;;;;15.27;10.52;;;;;;;;;;5060169;28;20017;-65
2021/07/24 07:22:46;;;;;;;18.98;10.32;;;;;;;;;;5058208;28;20473;-66
2021/07/24 07:25:12;;;;;;;19.08;10.48;;;;;;;;;;5060973;28;20059;-66
2021/07/24 07:27:40;;;;;;;16.33;10.68;;;;;;;;;;5058937;28;20028;-66
2021/07/24 07:30:06;;;;;;;24.15;11.35;;;;;;;;;;5058233;28;20036;-66
2021/07/24 07:32:31;;;;;;;17.92;9.73;;;;;;;;;;5064561;28;20021;-66
2021/07/24 07:34:56;;;;;;;17.30;10.20;;;;;;;;;;5069987;28;20378;-66
2021/07/24 07:37:22;;;;;;;16.33;10.07;;;;;;;;;;5063548;28;20023;-66
2021/07/24 07:39:47;;;;;;;18.67;10.68;;;;;;;;;;5061448;28;20063;-66
2021/07/24 07:42:12;;;;;;;19.37;10.37;;;;;;;;;;5072028;28;20021;-66
2021/07/24 07:44:38;;;;;;;19.50;9.87;;;;;;;;;;5065421;28;20291;-66
2021/07/24 07:47:04;;;;;;;19.20;10.50;;;;;;;;;;5057114;28;20024;-67
2021/07/24 07:49:29;;;;;;;17.23;10.43;;;;;;;;;;5069408;28;20028;-66
2021/07/24 07:51:54;;;;;;;16.47;10.30;;;;;;;;;;5059468;28;20028;-66
2021/07/24 07:54:19;;;;;;;18.10;10.03;;;;;;;;;;5053823;28;20537;-66
2021/07/24 07:56:44;;;;;;;26.03;12.27;;;;;;;;;;5061507;28;20275;-66
2021/07/24 07:59:09;;;;;;;20.37;10.40;;;;;;;;;;5069490;28;20024;-66
2021/07/24 08:01:35;;;;;;;15.67;9.70;;;;;;;;;;5063294;28;20032;-67
2021/07/24 08:04:00;;;;;;;14.70;9.77;;;;;;;;;;5068527;28;20051;-66
2021/07/24 08:06:25;;;;;;;16.75;10.95;;;;;;;;;;5068894;28;20024;-66
2021/07/24 08:08:50;;;;;;;16.73;9.83;;;;;;;;;;5058669;28;20497;-67
2021/07/24 08:11:16;;;;;;;19.33;10.13;;;;;;;;;;5060157;28;20325;-66
2021/07/24 08:13:41;;;;;;;19.83;10.13;;;;;;;;;;5050447;28;20280;-67
2021/07/24 08:16:16;;;;;;;14.50;9.87;;;;;;;;;;5051545;28;20748;-66
2021/07/24 08:18:41;;;;;;;18.60;10.27;;;;;;;;;;5058243;28;20021;-67
2021/07/24 08:21:07;;;;;;;16.73;10.48;;;;;;;;;;5060445;28;20795;-66
2021/07/24 08:23:32;;;;;;;20.80;10.10;;;;;;;;;;5065809;28;20025;-67
2021/07/24 08:25:57;;;;;;;18.35;10.55;;;;;;;;;;5054027;28;20621;-66
2021/07/24 08:28:25;;;;;;;18.65;9.73;;;;;;;;;;5051513;28;20025;-66
2021/07/24 08:30:50;;;;;;;18.85;10.38;;;;;;;;;;5060884;28;20028;-67
2021/07/24 08:33:15;;;;;;;20.20;10.13;;;;;;;;;;5068692;28;20040;-66
2021/07/24 08:35:40;;;;;;;20.10;9.13;;;;;;;;;;5058285;28;20264;-67
2021/07/24 08:38:06;;;;;;;18.90;10.23;;;;;;;;;;5049178;28;20025;-66
2021/07/24 08:40:31;;;;;;;17.03;11.23;;;;;;;;;;5049290;28;20377;-66
2021/07/24 08:43:01;;;;;;;17.97;11.30;;;;;;;;;;5049357;28;20033;-66
2021/07/24 08:45:27;;;;;;;19.40;10.40;;;;;;;;;;5048739;28;20060;-66
2021/07/24 08:47:52;;;;;;;16.70;10.73;;;;;;;;;;5055968;28;20060;-67
2021/07/24 08:50:17;;;;;;;22.13;10.20;;;;;;;;;;5063464;28;20054;-66
2021/07/24 08:52:46;;;;;;;18.63;10.98;;;;;;;;;;5058740;28;20021;-66
2021/07/24 08:55:11;;;;;;;21.67;10.60;;;;;;;;;;5064087;28;20099;-66
2021/07/24 08:57:38;;;;;;;16.53;10.73;;;;;;;;;;5054426;28;20049;-66
2021/07/24 09:00:05;;;;;;;19.15;10.48;;;;;;;;;;5049216;28;20029;-65
2021/07/24 09:02:30;;;;;;;16.92;10.90;;;;;;;;;;5056688;28;20105;-66
2021/07/24 09:04:57;;;;;;;19.35;9.90;;;;;;;;;;5061283;28;20405;-66
2021/07/24 09:07:25;;;;;;;17.13;9.35;;;;;;;;;;5050847;28;20029;-66
2021/07/24 09:09:51;;;;;;;15.93;9.75;;;;;;;;;;5046562;28;20073;-66
2021/07/24 09:12:16;;;;;;;19.40;10.52;;;;;;;;;;5048765;28;20415;-66
2021/07/24 09:14:42;;;;;;;15.87;9.83;;;;;;;;;;5057813;28;20074;-66
2021/07/24 09:17:09;;;;;;;17.48;10.90;;;;;;;;;;5049654;28;20275;-67
2021/07/24 09:19:34;;;;;;;30.73;16.90;;;;;;;;;;5055524;28;20040;-66
2021/07/24 09:21:59;;;;;;;18.02;10.80;;;;;;;;;;5056703;28;20028;-67
2021/07/24 09:24:27;;;;;;;18.48;11.90;;;;;;;;;;5053095;28;20043;-66
2021/07/24 09:26:53;;;;;;;20.35;11.32;;;;;;;;;;5063974;28;20456;-66
2021/07/24 09:29:18;;;;;;;20.00;11.33;;;;;;;;;;5059859;28;20016;-67
2021/07/24 09:31:44;;;;;;;16.42;10.75;;;;;;;;;;5054959;28;20310;-66
2021/07/24 09:34:11;;;;;;;19.70;11.23;;;;;;;;;;5057404;28;20466;-66
2021/07/24 09:36:36;;;;;;;18.40;11.27;;;;;;;;;;5051356;28;20021;-66
2021/07/24 09:39:08;;;;;;;22.08;10.90;;;;;;;;;;5057315;28;20147;-66
2021/07/24 09:41:34;;;;;;;22.30;11.65;;;;;;;;;;5059742;28;20064;-67
2021/07/24 09:44:00;;;;;;;21.42;10.43;;;;;;;;;;5051065;28;20574;-66
2021/07/24 09:46:27;;;;;;;18.17;10.20;;;;;;;;;;5051788;28;20374;-64
2021/07/24 09:48:53;;;;;;;15.45;10.50;;;;;;;;;;5067058;28;20154;-67
2021/07/24 09:51:34;;;;;;;18.20;10.15;;;;;;;;;;5057269;28;20438;-66
2021/07/24 09:54:00;;;;;;;18.05;10.73;;;;;;;;;;5050771;28;20024;-66
2021/07/24 09:56:42;;;;;;;18.33;11.15;;;;;;;;;;5056402;28;20027;-65
2021/07/24 09:59:19;;;;;;;20.50;11.40;;;;;;;;;;5063716;28;20489;-65
2021/07/24 10:01:53;;;;;;;19.25;10.00;;;;;;;;;;5060766;28;20017;-66
2021/07/24 10:04:31;;;;;;;17.35;9.68;;;;;;;;;;5065806;28;20025;-67
2021/07/24 10:06:58;;;;;;;20.55;11.02;;;;;;;;;;5056420;28;20016;-65
2021/07/24 10:09:26;;;;;;;17.45;9.73;;;;;;;;;;5053373;28;20024;-65
2021/07/24 10:11:55;;;;;;;17.10;10.70;;;;;;;;;;5063369;28;20031;-65
2021/07/24 10:14:21;;;;;;;13.43;8.15;;;;;;;;;;5050786;28;20088;-66
2021/07/24 10:16:46;;;;;;;17.98;11.35;;;;;;;;;;5057491;28;20016;-66
2021/07/24 10:19:12;;;;;;;21.52;10.55;;;;;;;;;;5061227;28;20013;-66
2021/07/24 10:21:37;;;;;;;19.98;10.57;;;;;;;;;;5062479;28;20705;-66
2021/07/24 10:24:03;;;;;;;18.73;11.60;;;;;;;;;;5065735;28;20082;-66
2021/07/24 10:26:32;;;;;;;23.70;12.07;;;;;;;;;;5057475;28;20020;-66
2021/07/24 10:29:00;;;;;;;24.07;12.27;;;;;;;;;;5057954;28;20025;-66
2021/07/24 10:31:25;;;;;;;22.85;9.63;;;;;;;;;;5056060;28;20025;-66
2021/07/24 10:33:53;;;;;;;26.17;11.55;;;;;;;;;;5057949;28;20013;-66
2021/07/24 10:36:18;;;;;;;22.30;11.57;;;;;;;;;;5060706;28;20028;-65
2021/07/24 10:39:04;;;;;;;20.48;11.88;;;;;;;;;;5051531;28;20059;-65
2021/07/24 10:41:29;;;;;;;19.70;11.77;;;;;;;;;;5057800;28;20029;-66
2021/07/24 10:43:58;;;;;;;22.87;12.17;;;;;;;;;;5061901;28;20074;-66
2021/07/24 10:46:45;;;;;;;18.70;10.32;;;;;;;;;;5060165;28;20031;-66
2021/07/24 10:49:22;;;;;;;23.40;12.88;;;;;;;;;;5057685;28;20392;-70
2021/07/24 10:51:57;;;;;;;22.05;11.27;;;;;;;;;;5050842;28;20047;-67
2021/07/24 10:54:23;;;;;;;25.15;12.63;;;;;;;;;;5053710;28;20040;-68
2021/07/24 10:56:48;;;;;;;21.27;12.38;;;;;;;;;;5053474;28;20017;-67
2021/07/24 10:59:13;;;;;;;20.47;12.07;;;;;;;;;;5067177;28;20411;-67
2021/07/24 11:01:45;;;;;;;23.73;12.30;;;;;;;;;;5060287;28;20263;-67
2021/07/24 11:04:29;;;;;;;13.20;7.55;;;;;;;;;;5080515;22;20491;-84
2021/07/24 11:07:14;;;;;;;23.35;11.05;;;;;;;;;;5078745;28;20448;-86
2021/07/24 11:09:43;;;;;;;20.25;11.30;;;;;;;;;;5052077;28;20032;-86
2021/07/24 11:12:09;;;;;;;14.57;5.43;;;;;;;;;;5052826;28;20020;-87
2021/07/24 11:14:38;;;;;;;22.63;13.15;;;;;;;;;;5071958;28;20016;-87
2021/07/24 11:17:06;;;;;;;21.73;12.25;;;;;;;;;;5054543;28;20690;-88
2021/07/24 11:19:32;;;;;;;20.48;11.88;;;;;;;;;;5073386;28;20020;-87
2021/07/24 11:22:14;;;;;;;20.40;10.00;;;;;;;;;;5064423;28;20574;-86
2021/07/24 11:24:40;;;;;;;23.25;12.68;;;;;;;;;;5072404;28;20020;-87
2021/07/24 11:27:06;;;;;;;23.92;13.40;;;;;;;;;;5072127;28;20519;-86
2021/07/24 11:29:31;;;;;;;22.23;13.57;;;;;;;;;;5072093;28;20044;-86
2021/07/24 11:32:03;;;;;;;22.15;13.68;;;;;;;;;;5057135;28;20107;-87
2021/07/24 11:34:30;;;;;;;23.95;13.23;;;;;;;;;;5072941;28;20033;-86
2021/07/24 11:36:55;;;;;;;25.20;13.05;;;;;;;;;;5069585;28;20027;-86
2021/07/24 11:39:24;;;;;;;20.55;12.55;;;;;;;;;;5071907;28;20016;-86
2021/07/24 11:41:49;;;;;;;22.40;13.68;;;;;;;;;;5092174;28;20383;-87
2021/07/24 11:44:28;;;;;;;22.83;13.57;;;;;;;;;;5071259;28;20016;-87
2021/07/24 11:47:03;;;;;;;26.92;14.23;;;;;;;;;;5058903;28;20081;-87
2021/07/24 11:49:32;;;;;;;24.17;13.23;;;;;;;;;;5064426;28;20062;-87
2021/07/24 11:51:58;;;;;;;25.10;15.25;;;;;;;;;;5091682;28;20027;-87
2021/07/24 11:54:41;;;;;;;27.42;15.20;;;;;;;;;;5074739;28;20027;-85
2021/07/24 11:57:06;;;;;;;26.00;15.18;;;;;;;;;;5074718;28;20016;-86
2021/07/24 11:59:32;;;;;;;22.65;15.48;;;;;;;;;;5053915;28;20013;-86
2021/07/24 12:01:58;;;;;;;23.65;15.82;;;;;;;;;;5053825;28;20020;-87
2021/07/24 12:04:24;;;;;;;26.27;15.52;;;;;;;;;;5071130;28;20025;-87
2021/07/24 12:06:51;;;;;;;36.47;16.92;;;;;;;;;;5071757;28;20091;-86
2021/07/24 12:09:17;;;;;;;29.08;14.70;;;;;;;;;;5053363;28;20032;-88
2021/07/24 12:11:47;;;;;;;30.25;16.45;;;;;;;;;;5055475;28;20573;-90
2021/07/24 12:14:12;;;;;;;39.15;18.30;;;;;;;;;;5057661;23;20048;-66
2021/07/24 12:16:41;;;;;;;32.22;18.75;;;;;;;;;;5066877;28;20017;-66
2021/07/24 12:19:20;;;;;;;32.00;18.80;;;;;;;;;;5054146;28;20028;-66
2021/07/24 12:21:45;;;;;;;34.17;18.70;;;;;;;;;;5052133;28;20021;-66
2021/07/24 12:24:11;;;;;;;31.40;18.20;;;;;;;;;;5056416;28;20048;-66
2021/07/24 12:26:37;;;;;;;31.20;18.80;;;;;;;;;;5058735;28;20055;-66
2021/07/24 12:29:08;;;;;;;35.13;18.48;;;;;;;;;;5051617;28;20040;-67
2021/07/24 12:31:41;;;;;;;34.80;21.42;;;;;;;;;;5052704;28;20041;-68
2021/07/24 12:34:15;;;;;;;37.35;21.60;;;;;;;;;;5060348;28;20543;-67
2021/07/24 12:36:51;;;;;;;29.00;17.40;;;;;;;;;;5058768;28;20024;-67
2021/07/24 12:39:20;;;;;;;30.38;17.88;;;;;;;;;;5058899;28;20063;-68
2021/07/24 12:41:56;;;;;;;35.03;21.05;;;;;;;;;;5057861;28;20111;-67
2021/07/24 12:44:21;;;;;;;39.25;20.25;;;;;;;;;;5050953;28;20024;-68
2021/07/24 12:47:06;;;;;;;33.87;19.03;;;;;;;;;;5055470;28;20017;-69
2021/07/24 12:49:37;;;;;;;37.65;17.02;;;;;;;;;;5060883;28;20322;-69
2021/07/24 12:52:21;;;;;;;45.17;23.63;;;;;;;;;;5052318;28;20087;-66
2021/07/24 12:55:18;;;;;;;30.05;15.10;;;;;;;;;;5060570;28;20090;-66
2021/07/24 12:57:43;;;;;;;37.92;22.27;;;;;;;;;;5034335;28;20040;-67
2021/07/24 13:00:10;;;;;;;38.97;22.17;;;;;;;;;;5051257;28;20389;-68
2021/07/24 13:02:35;;;;;;;41.55;20.27;;;;;;;;;;5052461;28;20017;-67
2021/07/24 13:05:00;;;;;;;42.80;23.20;;;;;;;;;;5053503;28;20034;-68
2021/07/24 13:07:26;;;;;;;42.60;23.73;;;;;;;;;;5062341;28;20036;-67
2021/07/24 13:09:58;;;;;;;41.03;23.83;;;;;;;;;;5071021;28;20361;-69
2021/07/24 13:12:24;;;;;;;42.55;24.63;;;;;;;;;;5054518;28;20029;-68
2021/07/24 13:14:49;;;;;;;45.40;26.05;;;;;;;;;;5059212;28;20075;-66
2021/07/24 13:17:14;;;;;;;47.13;24.17;;;;;;;;;;5057626;28;20153;-67
2021/07/24 13:19:39;;;;;;;46.58;24.95;;;;;;;;;;5051070;28;20260;-68
2021/07/24 13:22:05;;;;;;;37.10;21.87;;;;;;;;;;5053279;28;20033;-67
2021/07/24 13:24:31;;;;;;;39.03;22.37;;;;;;;;;;5065027;28;20420;-68
2021/07/24 13:29:41;;;;;;;43.65;23.40;;;;;;;;;;5070855;28;20077;-67
2021/07/24 13:32:06;;;;;;;35.17;18.80;;;;;;;;;;5051796;28;20013;-67
2021/07/24 13:34:31;;;;;;;42.17;24.50;;;;;;;;;;5059368;28;20029;-66
2021/07/24 13:36:57;;;;;;;37.57;23.53;;;;;;;;;;5052114;28;20021;-67
2021/07/24 13:39:22;;;;;;;34.83;19.63;;;;;;;;;;5050444;28;20734;-67
2021/07/24 13:41:47;;;;;;;44.97;24.07;;;;;;;;;;5050719;28;20525;-67
2021/07/24 13:44:12;;;;;;;41.07;23.27;;;;;;;;;;5050583;28;20264;-68
2021/07/24 13:46:37;;;;;;;40.33;24.67;;;;;;;;;;5050366;28;20522;-67
2021/07/24 13:49:04;;;;;;;38.30;23.67;;;;;;;;;;5051162;28;20102;-69
2021/07/24 13:51:29;;;;;;;41.90;22.77;;;;;;;;;;5063067;28;20739;-66
2021/07/24 13:53:54;;;;;;;42.67;24.58;;;;;;;;;;5055987;28;20036;-67
2021/07/24 13:56:20;;;;;;;42.33;23.70;;;;;;;;;;5062426;28;20071;-66
2021/07/24 13:58:45;;;;;;;38.10;23.30;;;;;;;;;;5056957;28;20021;-66
2021/07/24 14:01:10;;;;;;;46.05;24.27;;;;;;;;;;5057646;28;20025;-68
2021/07/24 14:03:36;;;;;;;40.53;22.67;;;;;;;;;;5050456;28;20710;-66
2021/07/24 14:06:03;;;;;;;34.92;18.60;;;;;;;;;;5050161;28;20500;-66
2021/07/24 14:08:28;;;;;;;41.40;24.48;;;;;;;;;;5050174;28;20024;-65
2021/07/24 14:10:53;;;;;;;40.20;24.42;;;;;;;;;;5050160;28;20032;-68
2021/07/24 14:13:18;;;;;;;40.97;25.60;;;;;;;;;;5056239;28;20028;-66
2021/07/24 14:15:44;;;;;;;45.00;26.43;;;;;;;;;;5056151;28;20017;-68
2021/07/24 14:18:09;;;;;;;44.92;25.60;;;;;;;;;;5054499;28;20713;-67
2021/07/24 14:20:34;;;;;;;44.80;26.70;;;;;;;;;;5055481;28;20036;-67